Time;durP1;ratioP1;P1;durP2;ratioP2;P2;SDS_P1;SDS_P2;PMS_P1;PMS_P2;Temp;Humidity;BMP_temperature;BMP_pressure;BME280_temperature;BME280_humidity;BME280_pressure;Samples;Min_cycle;Max_cycle;Signal;HPM_P1;HPM_P2
2022/08/14 00:01:33;;;;;;;;;;;17.50;99.90;;;;;;4914753;29;20002;-82
2022/08/14 00:03:59;;;;;;;;;;;17.60;99.90;;;;;;4931157;29;19925;-83
2022/08/14 00:06:25;;;;;;;;;;;17.50;99.90;;;;;;4931710;29;19911;-82
2022/08/14 00:08:51;;;;;;;;;;;17.50;99.90;;;;;;4930957;29;20380;-82
2022/08/14 00:11:16;;;;;;;;;;;17.50;99.90;;;;;;4927180;29;20393;-82
2022/08/14 00:13:42;;;;;;;;;;;17.40;99.90;;;;;;4900115;29;19962;-82
2022/08/14 00:16:09;;;;;;;;;;;17.40;99.90;;;;;;4923518;29;19953;-84
2022/08/14 00:18:34;;;;;;;;;;;17.40;99.90;;;;;;4932072;29;20383;-82
2022/08/14 00:21:00;;;;;;;;;;;17.40;99.90;;;;;;4930253;29;19966;-82
2022/08/14 00:23:26;;;;;;;;;;;17.30;99.90;;;;;;4930646;29;19961;-83
2022/08/14 00:25:53;;;;;;;;;;;17.40;99.90;;;;;;4930285;29;20010;-82
2022/08/14 00:28:20;;;;;;;;;;;17.40;99.90;;;;;;4946738;28;19910;-82
2022/08/14 00:30:46;;;;;;;;;;;17.30;99.90;;;;;;4932048;29;20360;-82
2022/08/14 00:33:12;;;;;;;;;;;17.30;99.90;;;;;;4914557;29;19915;-83
2022/08/14 00:35:38;;;;;;;;;;;17.30;99.90;;;;;;4930323;29;19911;-81
2022/08/14 00:38:04;;;;;;;;;;;17.30;99.90;;;;;;4930518;29;19925;-81
2022/08/14 00:40:29;;;;;;;;;;;17.30;99.90;;;;;;4946378;29;19923;-81
2022/08/14 00:42:55;;;;;;;;;;;17.30;99.90;;;;;;4929094;29;20402;-82
2022/08/14 00:45:21;;;;;;;;;;;17.30;99.90;;;;;;4915383;29;19958;-84
2022/08/14 00:47:47;;;;;;;;;;;17.30;99.90;;;;;;4931198;29;20006;-82
2022/08/14 00:50:14;;;;;;;;;;;17.30;99.90;;;;;;4931347;29;19911;-83
2022/08/14 00:52:40;;;;;;;;;;;17.30;99.90;;;;;;4949564;28;20291;-82
2022/08/14 00:55:07;;;;;;;;;;;17.20;99.90;;;;;;4949755;29;19921;-82
2022/08/14 00:57:33;;;;;;;;;;;17.20;99.90;;;;;;4934896;29;20427;-82
2022/08/14 00:59:59;;;;;;;;;;;17.20;99.90;;;;;;4941536;28;19918;-83
2022/08/14 01:02:26;;;;;;;;;;;17.20;99.90;;;;;;4915420;29;19961;-82
2022/08/14 01:04:53;;;;;;;;;;;17.20;99.90;;;;;;4937415;28;19921;-83
2022/08/14 01:07:19;;;;;;;;;;;17.10;99.90;;;;;;4915621;29;19910;-82
2022/08/14 01:09:52;;;;;;;;;;;17.10;99.90;;;;;;4930453;29;19918;-83
2022/08/14 01:12:19;;;;;;;;;;;17.10;99.90;;;;;;4930761;29;19965;-81
2022/08/14 01:14:45;;;;;;;;;;;17.10;99.90;;;;;;4928754;29;20396;-82
2022/08/14 01:17:11;;;;;;;;;;;17.10;99.90;;;;;;4925654;29;19958;-82
2022/08/14 01:22:21;;;;;;;;;;;17.10;99.90;;;;;;4947403;29;19914;-82
2022/08/14 01:24:47;;;;;;;;;;;17.00;99.90;;;;;;4933330;29;20613;-81
2022/08/14 01:27:20;;;;;;;;;;;17.00;99.90;;;;;;4946605;29;19915;-82
2022/08/14 01:29:46;;;;;;;;;;;17.00;99.90;;;;;;4933763;29;19957;-82
2022/08/14 01:32:12;;;;;;;;;;;16.90;99.90;;;;;;4948756;28;19934;-82
2022/08/14 01:34:38;;;;;;;;;;;16.90;99.90;;;;;;4933411;29;20348;-83
2022/08/14 01:37:04;;;;;;;;;;;16.90;99.90;;;;;;4929234;29;20306;-82
2022/08/14 01:39:29;;;;;;;;;;;16.90;99.90;;;;;;4915534;29;19915;-82
2022/08/14 01:41:59;;;;;;;;;;;16.90;99.90;;;;;;4949319;29;20361;-82
2022/08/14 01:44:28;;;;;;;;;;;16.90;99.90;;;;;;4929901;29;20307;-82
2022/08/14 01:46:56;;;;;;;;;;;16.80;99.90;;;;;;4927932;29;19950;-82
2022/08/14 01:49:22;;;;;;;;;;;16.80;99.90;;;;;;4931920;29;20014;-82
2022/08/14 01:51:53;;;;;;;;;;;16.80;99.90;;;;;;4912767;29;20022;-82
2022/08/14 01:54:21;;;;;;;;;;;16.80;99.90;;;;;;4920055;29;19914;-82
2022/08/14 01:56:49;;;;;;;;;;;16.80;99.90;;;;;;4932657;29;19919;-82
2022/08/14 01:59:22;;;;;;;;;;;16.80;99.90;;;;;;4934418;28;19915;-82
2022/08/14 02:01:50;;;;;;;;;;;16.70;99.90;;;;;;4925757;29;19922;-83
2022/08/14 02:04:16;;;;;;;;;;;16.70;99.90;;;;;;4916952;29;19921;-82
2022/08/14 02:06:43;;;;;;;;;;;16.70;99.90;;;;;;4947382;29;19918;-82
2022/08/14 02:09:09;;;;;;;;;;;16.70;99.90;;;;;;4932807;29;19980;-82
2022/08/14 02:11:35;;;;;;;;;;;16.70;99.90;;;;;;4932397;29;20380;-82
2022/08/14 02:14:03;;;;;;;;;;;16.70;99.90;;;;;;4929426;29;19975;-82
2022/08/14 02:16:31;;;;;;;;;;;16.60;99.90;;;;;;4920699;29;19937;-82
2022/08/14 02:18:59;;;;;;;;;;;16.60;99.90;;;;;;4929397;29;20048;-82
2022/08/14 02:21:25;;;;;;;;;;;16.60;99.90;;;;;;4948148;29;19950;-82
2022/08/14 02:23:53;;;;;;;;;;;16.60;99.90;;;;;;4926374;29;19989;-81
2022/08/14 02:26:19;;;;;;;;;;;16.60;99.90;;;;;;4927326;29;19914;-82
2022/08/14 02:28:46;;;;;;;;;;;16.60;99.90;;;;;;4932334;29;19918;-82
2022/08/14 02:31:12;;;;;;;;;;;16.50;99.90;;;;;;4936824;29;19958;-82
2022/08/14 02:33:40;;;;;;;;;;;16.50;99.90;;;;;;4929559;29;19919;-82
2022/08/14 02:36:06;;;;;;;;;;;16.50;99.90;;;;;;4921980;29;19925;-84
2022/08/14 02:38:32;;;;;;;;;;;16.50;99.90;;;;;;4916867;29;20398;-82
2022/08/14 02:40:58;;;;;;;;;;;16.50;99.90;;;;;;4948096;29;19914;-82
2022/08/14 02:43:25;;;;;;;;;;;16.50;99.90;;;;;;4932933;29;19996;-82
2022/08/14 02:45:51;;;;;;;;;;;16.40;99.90;;;;;;4918196;29;19910;-82
2022/08/14 02:48:17;;;;;;;;;;;16.40;99.90;;;;;;4932849;29;19926;-82
2022/08/14 02:50:42;;;;;;;;;;;16.40;99.90;;;;;;4915522;29;20483;-83
2022/08/14 02:53:08;;;;;;;;;;;16.40;99.90;;;;;;4911199;29;19938;-82
2022/08/14 02:55:38;;;;;;;;;;;16.30;99.90;;;;;;4900928;29;19915;-82
2022/08/14 02:58:04;;;;;;;;;;;16.30;99.90;;;;;;4916573;29;19954;-82
2022/08/14 03:00:31;;;;;;;;;;;16.30;99.90;;;;;;4931909;29;19949;-82
2022/08/14 03:02:57;;;;;;;;;;;16.20;99.90;;;;;;4915747;29;19918;-81
2022/08/14 03:05:22;;;;;;;;;;;16.20;99.90;;;;;;4945875;28;19914;-82
2022/08/14 03:07:49;;;;;;;;;;;16.10;99.90;;;;;;4916347;29;19923;-81
2022/08/14 03:10:15;;;;;;;;;;;16.10;99.90;;;;;;4931587;29;19914;-82
2022/08/14 03:12:41;;;;;;;;;;;16.10;99.90;;;;;;4911924;29;19911;-82
2022/08/14 03:15:12;;;;;;;;;;;16.10;99.90;;;;;;4928059;29;19922;-82
2022/08/14 03:17:38;;;;;;;;;;;16.10;99.90;;;;;;4912406;29;20371;-81
2022/08/14 03:20:05;;;;;;;;;;;16.10;99.90;;;;;;4912973;29;20022;-82
2022/08/14 03:22:32;;;;;;;;;;;16.10;99.90;;;;;;4927243;29;19915;-82
2022/08/14 03:24:59;;;;;;;;;;;16.10;99.90;;;;;;4928156;29;20596;-82
2022/08/14 03:27:30;;;;;;;;;;;16.10;99.90;;;;;;4915849;29;19921;-81
2022/08/14 03:29:55;;;;;;;;;;;16.10;99.90;;;;;;4931190;29;19915;-81
2022/08/14 03:32:23;;;;;;;;;;;16.10;99.90;;;;;;4899100;29;19922;-82
2022/08/14 03:34:49;;;;;;;;;;;16.10;99.90;;;;;;4930642;29;19915;-81
2022/08/14 03:37:15;;;;;;;;;;;16.00;99.90;;;;;;4928480;29;19911;-81
2022/08/14 03:39:40;;;;;;;;;;;16.00;99.90;;;;;;4912405;29;19958;-81
2022/08/14 03:42:06;;;;;;;;;;;16.00;99.90;;;;;;4942479;29;19921;-81
2022/08/14 03:44:34;;;;;;;;;;;15.90;99.90;;;;;;4930715;29;19925;-81
2022/08/14 03:46:59;;;;;;;;;;;15.90;99.90;;;;;;4926671;29;19915;-81
2022/08/14 03:49:25;;;;;;;;;;;15.90;99.90;;;;;;4915217;29;20298;-82
2022/08/14 03:51:50;;;;;;;;;;;15.90;99.90;;;;;;4914703;29;20249;-81
2022/08/14 03:54:16;;;;;;;;;;;15.90;99.90;;;;;;4946432;29;19914;-81
2022/08/14 03:56:44;;;;;;;;;;;15.80;99.90;;;;;;4923996;29;19921;-81
2022/08/14 03:59:10;;;;;;;;;;;15.80;99.90;;;;;;4930937;29;20017;-81
2022/08/14 04:01:38;;;;;;;;;;;15.80;99.90;;;;;;4930394;29;20066;-81
2022/08/14 04:04:05;;;;;;;;;;;15.80;99.90;;;;;;4915379;29;19934;-81
2022/08/14 04:06:34;;;;;;;;;;;15.80;99.90;;;;;;4946003;28;19917;-81
2022/08/14 04:09:00;;;;;;;;;;;15.80;99.90;;;;;;4912152;29;19937;-82
2022/08/14 04:11:26;;;;;;;;;;;15.70;99.90;;;;;;4919195;29;20427;-81
2022/08/14 04:13:53;;;;;;;;;;;15.70;99.90;;;;;;4946989;29;19915;-81
2022/08/14 04:16:20;;;;;;;;;;;15.70;99.90;;;;;;4917650;29;20343;-82
2022/08/14 04:18:51;;;;;;;;;;;15.70;99.90;;;;;;4915662;29;19919;-82
2022/08/14 04:21:18;;;;;;;;;;;15.70;99.90;;;;;;4929900;29;19915;-82
2022/08/14 04:23:45;;;;;;;;;;;15.70;99.90;;;;;;4950759;28;20272;-81
2022/08/14 04:26:11;;;;;;;;;;;15.70;99.90;;;;;;4930791;29;19915;-81
2022/08/14 04:28:38;;;;;;;;;;;15.70;99.90;;;;;;4947302;28;19915;-81
2022/08/14 04:31:05;;;;;;;;;;;15.60;99.90;;;;;;4944432;29;20272;-81
2022/08/14 04:33:31;;;;;;;;;;;15.70;99.90;;;;;;4928987;29;20311;-81
2022/08/14 04:35:57;;;;;;;;;;;15.60;99.90;;;;;;4936640;29;19917;-81
2022/08/14 04:43:51;;;;;;;;;;;15.70;99.90;;;;;;4948109;28;20271;-81
2022/08/14 04:46:19;;;;;;;;;;;15.70;99.90;;;;;;4933304;29;19921;-81
2022/08/14 04:48:45;;;;;;;;;;;15.80;99.90;;;;;;4949960;28;20401;-81
2022/08/14 04:51:11;;;;;;;;;;;15.80;99.90;;;;;;4922177;29;19962;-82
2022/08/14 04:53:42;;;;;;;;;;;15.80;99.90;;;;;;4933900;29;19974;-81
2022/08/14 04:56:12;;;;;;;;;;;15.90;99.90;;;;;;4917691;29;19954;-81
2022/08/14 04:58:38;;;;;;;;;;;15.90;99.90;;;;;;4946854;29;20591;-81
2022/08/14 05:01:06;;;;;;;;;;;16.00;99.90;;;;;;4933081;29;19919;-81
2022/08/14 05:03:33;;;;;;;;;;;16.10;99.90;;;;;;4917705;29;20006;-82
2022/08/14 05:05:59;;;;;;;;;;;16.10;99.90;;;;;;4948924;28;19914;-81
2022/08/14 05:08:25;;;;;;;;;;;16.20;99.90;;;;;;4949323;28;20009;-81
2022/08/14 05:10:53;;;;;;;;;;;16.20;99.90;;;;;;4919434;29;20017;-81
2022/08/14 05:13:20;;;;;;;;;;;16.30;99.90;;;;;;4942747;28;19911;-81
2022/08/14 05:15:45;;;;;;;;;;;16.30;99.90;;;;;;4933820;29;19910;-81
2022/08/14 05:18:13;;;;;;;;;;;16.30;99.90;;;;;;4933534;29;19926;-82
2022/08/14 05:20:39;;;;;;;;;;;16.40;99.90;;;;;;4917767;29;19918;-82
2022/08/14 05:23:06;;;;;;;;;;;16.40;99.90;;;;;;4933036;29;19914;-82
2022/08/14 05:25:33;;;;;;;;;;;16.50;99.90;;;;;;4929089;29;19921;-82
2022/08/14 05:28:19;;;;;;;;;;;16.60;99.90;;;;;;4948372;28;19911;-82
2022/08/14 05:30:45;;;;;;;;;;;16.70;99.90;;;;;;4932715;29;19910;-82
2022/08/14 05:33:12;;;;;;;;;;;16.70;99.90;;;;;;4916911;29;20479;-81
2022/08/14 05:35:38;;;;;;;;;;;16.80;99.90;;;;;;4932646;29;19935;-81
2022/08/14 05:38:08;;;;;;;;;;;17.00;99.90;;;;;;4916875;29;20487;-81
2022/08/14 05:40:34;;;;;;;;;;;17.10;99.90;;;;;;4933810;29;19910;-82
2022/08/14 05:43:00;;;;;;;;;;;17.30;99.90;;;;;;4950425;28;19915;-82
2022/08/14 05:45:25;;;;;;;;;;;17.70;99.90;;;;;;4933977;29;20447;-82
2022/08/14 05:47:51;;;;;;;;;;;18.00;99.90;;;;;;4950836;28;19918;-83
2022/08/14 05:50:17;;;;;;;;;;;18.40;99.90;;;;;;4932657;29;19966;-82
2022/08/14 05:52:42;;;;;;;;;;;18.70;99.90;;;;;;4918499;29;19910;-82
2022/08/14 05:55:09;;;;;;;;;;;19.20;99.90;;;;;;4918358;29;20005;-82
2022/08/14 05:57:46;;;;;;;;;;;19.50;99.90;;;;;;4946773;28;20360;-82
2022/08/14 06:00:12;;;;;;;;;;;19.90;99.90;;;;;;4912360;29;20337;-82
2022/08/14 06:02:37;;;;;;;;;;;20.30;99.90;;;;;;4932467;29;19914;-83
2022/08/14 06:05:03;;;;;;;;;;;20.70;99.90;;;;;;4937618;28;20027;-82
2022/08/14 06:07:29;;;;;;;;;;;21.10;99.90;;;;;;4937187;29;19962;-83
2022/08/14 06:09:55;;;;;;;;;;;21.50;99.90;;;;;;4950595;29;20372;-82
2022/08/14 06:12:20;;;;;;;;;;;21.80;99.90;;;;;;4930551;29;19915;-81
2022/08/14 06:14:46;;;;;;;;;;;22.20;99.90;;;;;;4949843;29;19915;-83
2022/08/14 06:17:11;;;;;;;;;;;22.50;99.90;;;;;;4948426;28;19922;-82
2022/08/14 06:19:37;;;;;;;;;;;22.70;99.90;;;;;;4898853;29;19919;-81
2022/08/14 06:22:03;;;;;;;;;;;23.00;99.90;;;;;;4913191;29;19915;-81
2022/08/14 06:24:28;;;;;;;;;;;23.20;99.90;;;;;;4915073;29;20009;-83
2022/08/14 06:26:55;;;;;;;;;;;23.50;99.90;;;;;;4933464;29;19915;-82
2022/08/14 06:29:20;;;;;;;;;;;23.80;99.90;;;;;;4948799;28;19914;-82
2022/08/14 06:31:46;;;;;;;;;;;24.00;99.60;;;;;;4934198;29;19911;-83
2022/08/14 06:34:12;;;;;;;;;;;24.30;98.20;;;;;;4917753;29;19915;-81
2022/08/14 06:36:37;;;;;;;;;;;24.60;97.90;;;;;;4920520;29;19918;-81
2022/08/14 06:39:03;;;;;;;;;;;24.90;97.30;;;;;;4932355;29;20066;-82
2022/08/14 06:41:29;;;;;;;;;;;25.20;96.40;;;;;;4933215;29;20013;-83
2022/08/14 06:43:55;;;;;;;;;;;25.60;95.30;;;;;;4914658;29;19915;-82
2022/08/14 06:46:21;;;;;;;;;;;25.90;94.60;;;;;;4922388;29;20395;-82
2022/08/14 06:48:47;;;;;;;;;;;26.20;93.00;;;;;;4913420;29;19918;-83
2022/08/14 06:51:13;;;;;;;;;;;26.40;92.60;;;;;;4922347;29;19961;-82
2022/08/14 06:53:38;;;;;;;;;;;26.50;92.50;;;;;;4933411;29;20332;-82
2022/08/14 06:56:04;;;;;;;;;;;26.70;92.00;;;;;;4930819;29;19964;-83
2022/08/14 06:58:30;;;;;;;;;;;27.10;90.80;;;;;;4933695;29;19965;-84
2022/08/14 07:06:24;;;;;;;;;;;27.60;88.50;;;;;;4940466;29;20406;-83
2022/08/14 07:08:51;;;;;;;;;;;27.60;88.20;;;;;;4912862;29;19907;-83
2022/08/14 07:11:16;;;;;;;;;;;27.60;88.40;;;;;;4917903;29;20398;-84
2022/08/14 07:13:42;;;;;;;;;;;27.80;86.70;;;;;;4937007;29;20009;-84
2022/08/14 07:16:11;;;;;;;;;;;28.00;85.50;;;;;;4943833;28;19926;-83
2022/08/14 07:18:37;;;;;;;;;;;28.30;85.10;;;;;;4928774;29;19915;-85
2022/08/14 07:21:04;;;;;;;;;;;28.50;82.50;;;;;;4920500;29;19920;-84
2022/08/14 07:23:30;;;;;;;;;;;28.70;81.30;;;;;;4928597;29;19969;-84
2022/08/14 07:25:56;;;;;;;;;;;28.40;79.80;;;;;;4915370;29;20380;-84
2022/08/14 07:28:23;;;;;;;;;;;28.30;80.50;;;;;;4928647;29;19951;-85
2022/08/14 07:30:56;;;;;;;;;;;28.40;79.30;;;;;;4912298;29;19922;-87
2022/08/14 07:33:23;;;;;;;;;;;28.40;80.10;;;;;;4931820;29;19915;-84
2022/08/14 07:35:48;;;;;;;;;;;28.00;80.20;;;;;;4947343;28;20009;-83
2022/08/14 07:38:19;;;;;;;;;;;28.10;80.10;;;;;;4931512;29;20005;-84
2022/08/14 07:40:45;;;;;;;;;;;28.20;80.10;;;;;;4917809;29;19958;-84
2022/08/14 07:43:12;;;;;;;;;;;28.20;77.90;;;;;;4912574;29;19942;-82
2022/08/14 07:45:39;;;;;;;;;;;28.40;78.90;;;;;;4920865;29;20364;-85
2022/08/14 07:48:05;;;;;;;;;;;28.60;77.70;;;;;;4931739;29;20379;-83
2022/08/14 07:50:31;;;;;;;;;;;28.70;76.90;;;;;;4915688;29;19918;-83
2022/08/14 07:52:58;;;;;;;;;;;28.50;76.60;;;;;;4917741;29;19953;-83
2022/08/14 07:55:24;;;;;;;;;;;28.30;75.50;;;;;;4933684;29;19965;-86
2022/08/14 07:57:50;;;;;;;;;;;28.30;76.70;;;;;;4931892;29;19915;-85
2022/08/14 08:00:18;;;;;;;;;;;28.10;77.00;;;;;;4932867;29;19993;-85
2022/08/14 08:02:44;;;;;;;;;;;28.10;77.70;;;;;;4934262;29;19915;-84
2022/08/14 08:05:11;;;;;;;;;;;28.10;77.70;;;;;;4919180;29;19910;-86
2022/08/14 08:07:37;;;;;;;;;;;27.80;77.70;;;;;;4934732;29;19914;-85
2022/08/14 08:10:32;;;;;;;;;;;27.70;77.90;;;;;;4934998;29;20279;-84
2022/08/14 08:13:06;;;;;;;;;;;27.50;77.80;;;;;;4950811;28;19914;-83
2022/08/14 08:15:46;;;;;;;;;;;27.30;79.00;;;;;;4934438;29;19911;-84
2022/08/14 08:18:14;;;;;;;;;;;27.00;79.00;;;;;;4919433;29;19918;-83
2022/08/14 08:20:41;;;;;;;;;;;27.10;80.10;;;;;;4919219;29;19914;-83
2022/08/14 08:23:07;;;;;;;;;;;27.10;78.70;;;;;;4916445;29;20600;-83
2022/08/14 08:25:34;;;;;;;;;;;26.90;78.90;;;;;;4918734;29;19937;-83
2022/08/14 08:28:01;;;;;;;;;;;27.00;78.90;;;;;;4916517;29;20014;-83
2022/08/14 08:30:27;;;;;;;;;;;26.80;79.00;;;;;;4919591;29;19919;-82
2022/08/14 08:32:54;;;;;;;;;;;26.90;78.30;;;;;;4935587;29;20300;-82
2022/08/14 08:35:22;;;;;;;;;;;27.00;77.70;;;;;;4919183;29;20005;-84
2022/08/14 08:37:49;;;;;;;;;;;26.90;77.50;;;;;;4936619;29;20291;-84
2022/08/14 08:40:22;;;;;;;;;;;26.90;73.70;;;;;;4919846;29;19915;-82
2022/08/14 08:42:48;;;;;;;;;;;26.90;74.80;;;;;;4936033;29;19915;-84
2022/08/14 08:45:15;;;;;;;;;;;26.90;75.90;;;;;;4916815;29;19922;-85
2022/08/14 08:47:41;;;;;;;;;;;26.90;75.60;;;;;;4935851;29;19910;-85
2022/08/14 08:50:19;;;;;;;;;;;26.50;74.00;;;;;;4919908;29;19911;-86
2022/08/14 08:52:49;;;;;;;;;;;26.40;74.60;;;;;;4916329;29;20010;-85
2022/08/14 08:55:15;;;;;;;;;;;26.30;76.20;;;;;;4932620;29;19915;-84
2022/08/14 08:57:41;;;;;;;;;;;26.30;74.20;;;;;;4919213;29;19966;-84
2022/08/14 09:00:17;;;;;;;;;;;26.30;75.10;;;;;;4917904;29;19918;-83
2022/08/14 09:02:57;;;;;;;;;;;26.20;73.50;;;;;;4915634;29;20388;-84
2022/08/14 09:05:23;;;;;;;;;;;26.20;76.10;;;;;;4917961;29;19966;-82
2022/08/14 09:07:49;;;;;;;;;;;26.20;74.30;;;;;;4932728;29;20362;-83
2022/08/14 09:10:15;;;;;;;;;;;26.20;75.40;;;;;;4917456;29;20005;-86
2022/08/14 09:12:40;;;;;;;;;;;26.30;74.30;;;;;;4919732;29;19915;-85
2022/08/14 09:15:08;;;;;;;;;;;26.10;74.10;;;;;;4916081;29;19911;-84
2022/08/14 09:17:35;;;;;;;;;;;26.20;76.00;;;;;;4900631;29;20261;-85
2022/08/14 09:20:00;;;;;;;;;;;26.20;74.30;;;;;;4900968;29;19919;-86
2022/08/14 09:22:28;;;;;;;;;;;26.20;75.40;;;;;;4920819;29;19911;-85
2022/08/14 09:24:54;;;;;;;;;;;26.20;75.60;;;;;;4959440;28;19938;-82
2022/08/14 09:27:20;;;;;;;;;;;26.10;74.50;;;;;;4936396;28;19938;-81
2022/08/14 09:29:46;;;;;;;;;;;26.00;75.10;;;;;;4934396;29;19915;-84
2022/08/14 09:32:15;;;;;;;;;;;26.10;76.30;;;;;;4933353;29;19911;-82
2022/08/14 09:35:02;;;;;;;;;;;26.30;75.10;;;;;;4921882;29;19919;-83
2022/08/14 09:37:39;;;;;;;;;;;26.30;75.30;;;;;;4924968;29;19915;-83
2022/08/14 09:40:16;;;;;;;;;;;26.40;76.10;;;;;;4914966;29;19918;-84
2022/08/14 09:43:01;;;;;;;;;;;26.50;76.20;;;;;;4918613;29;19915;-83
2022/08/14 09:45:32;;;;;;;;;;;26.60;73.70;;;;;;4948248;28;19919;-82
2022/08/14 09:47:58;;;;;;;;;;;26.60;73.80;;;;;;4934973;29;19982;-83
2022/08/14 09:50:29;;;;;;;;;;;26.60;75.10;;;;;;4917484;29;19915;-83
2022/08/14 09:53:04;;;;;;;;;;;26.70;74.50;;;;;;4934417;29;20316;-82
2022/08/14 09:55:32;;;;;;;;;;;26.80;72.80;;;;;;4916893;29;19970;-83
2022/08/14 09:58:14;;;;;;;;;;;26.90;73.00;;;;;;4917952;29;20335;-83
2022/08/14 10:00:42;;;;;;;;;;;26.90;72.50;;;;;;4934355;29;19910;-84
2022/08/14 10:03:08;;;;;;;;;;;26.90;73.10;;;;;;4917062;29;19922;-85
2022/08/14 10:05:35;;;;;;;;;;;26.70;73.50;;;;;;4933026;29;20557;-81
2022/08/14 10:08:01;;;;;;;;;;;26.70;73.10;;;;;;4917792;29;20327;-82
2022/08/14 10:10:34;;;;;;;;;;;26.50;72.70;;;;;;4934571;29;20394;-84
2022/08/14 10:13:01;;;;;;;;;;;26.50;74.10;;;;;;4948530;28;19953;-83
2022/08/14 10:15:28;;;;;;;;;;;26.60;73.90;;;;;;4931323;29;20597;-83
2022/08/14 10:18:13;;;;;;;;;;;26.70;74.20;;;;;;4933010;29;19914;-85
2022/08/14 10:20:42;;;;;;;;;;;26.70;73.80;;;;;;4934690;28;20367;-83
2022/08/14 10:23:09;;;;;;;;;;;26.90;74.10;;;;;;4949623;28;20008;-82
2022/08/14 10:25:39;;;;;;;;;;;26.90;73.90;;;;;;4949233;29;19936;-84
2022/08/14 10:28:05;;;;;;;;;;;27.00;71.50;;;;;;4914755;29;19966;-85
2022/08/14 10:30:35;;;;;;;;;;;27.10;71.60;;;;;;4930672;29;19954;-82
2022/08/14 10:33:01;;;;;;;;;;;27.20;70.70;;;;;;4917498;29;19918;-87
2022/08/14 10:35:37;;;;;;;;;;;27.30;70.90;;;;;;4917335;29;19907;-84
2022/08/14 10:38:03;;;;;;;;;;;27.30;70.50;;;;;;4949302;28;19915;-84
2022/08/14 10:40:30;;;;;;;;;;;27.20;69.90;;;;;;4948621;28;19931;-86
2022/08/14 10:42:55;;;;;;;;;;;27.00;69.70;;;;;;4932145;29;20472;-83
2022/08/14 10:45:32;;;;;;;;;;;26.90;68.90;;;;;;4930226;29;19922;-86
2022/08/14 10:47:58;;;;;;;;;;;26.90;69.20;;;;;;4932826;29;20379;-83
2022/08/14 10:50:30;;;;;;;;;;;26.90;70.60;;;;;;4933651;29;19919;-85
2022/08/14 10:52:58;;;;;;;;;;;27.10;70.60;;;;;;4932114;29;20013;-84
2022/08/14 10:55:29;;;;;;;;;;;27.20;69.50;;;;;;4945503;29;19962;-83
2022/08/14 10:57:58;;;;;;;;;;;27.30;68.40;;;;;;4904604;29;19915;-82
2022/08/14 11:00:27;;;;;;;;;;;27.30;69.30;;;;;;4935567;29;19911;-86
2022/08/14 11:03:08;;;;;;;;;;;27.40;67.30;;;;;;4916006;29;19911;-83
2022/08/14 11:05:52;;;;;;;;;;;27.30;67.20;;;;;;4932458;29;19911;-82
2022/08/14 11:08:28;;;;;;;;;;;27.20;68.80;;;;;;4913991;29;20292;-82
2022/08/14 11:10:56;;;;;;;;;;;27.30;67.90;;;;;;4919068;29;19998;-84
2022/08/14 11:13:26;;;;;;;;;;;27.30;66.80;;;;;;4916608;29;19911;-83
2022/08/14 11:15:54;;;;;;;;;;;27.10;67.70;;;;;;4918433;29;19910;-82
2022/08/14 11:18:20;;;;;;;;;;;27.00;67.60;;;;;;4932287;29;19969;-86
2022/08/14 11:20:53;;;;;;;;;;;27.00;69.70;;;;;;4933790;29;19915;-82
2022/08/14 11:23:19;;;;;;;;;;;27.00;68.10;;;;;;4909320;29;19929;-83
2022/08/14 11:25:45;;;;;;;;;;;27.20;68.20;;;;;;4931336;29;19907;-84
2022/08/14 11:28:15;;;;;;;;;;;27.30;67.80;;;;;;4932745;29;19938;-82
2022/08/14 11:30:41;;;;;;;;;;;27.40;66.60;;;;;;4933508;29;19910;-86
2022/08/14 11:33:07;;;;;;;;;;;27.40;66.60;;;;;;4917407;29;19913;-84
2022/08/14 11:35:33;;;;;;;;;;;27.40;66.40;;;;;;4916599;29;19993;-85
2022/08/14 11:38:00;;;;;;;;;;;27.40;67.70;;;;;;4929309;29;19919;-83
2022/08/14 11:40:27;;;;;;;;;;;27.50;66.00;;;;;;4943707;29;19918;-84
2022/08/14 11:42:56;;;;;;;;;;;27.40;64.40;;;;;;4915311;29;19946;-83
2022/08/14 11:45:23;;;;;;;;;;;27.40;65.60;;;;;;4914479;29;19914;-83
2022/08/14 11:47:49;;;;;;;;;;;27.50;64.20;;;;;;4947961;28;19917;-82
2022/08/14 11:50:21;;;;;;;;;;;27.60;65.10;;;;;;4948742;28;20288;-83
2022/08/14 11:52:47;;;;;;;;;;;27.70;64.10;;;;;;4916539;29;19915;-84
2022/08/14 11:55:13;;;;;;;;;;;27.80;64.70;;;;;;4912690;29;19915;-83
2022/08/14 11:57:40;;;;;;;;;;;27.90;64.80;;;;;;4924912;29;19947;-83
2022/08/14 12:00:08;;;;;;;;;;;27.90;60.90;;;;;;4914873;29;19911;-83
2022/08/14 12:02:34;;;;;;;;;;;27.80;61.90;;;;;;4932677;29;19938;-83
2022/08/14 12:05:00;;;;;;;;;;;27.90;60.70;;;;;;4916844;29;19910;-85
2022/08/14 12:07:26;;;;;;;;;;;28.00;61.30;;;;;;4932335;29;19915;-84
2022/08/14 12:09:52;;;;;;;;;;;28.10;61.10;;;;;;4948126;28;19969;-82
2022/08/14 12:12:20;;;;;;;;;;;28.30;61.90;;;;;;4912364;29;19919;-87
2022/08/14 12:14:52;;;;;;;;;;;28.30;60.90;;;;;;4914019;29;19950;-83
2022/08/14 12:17:18;;;;;;;;;;;28.30;59.90;;;;;;4929693;29;20367;-83
2022/08/14 12:19:45;;;;;;;;;;;28.30;60.90;;;;;;4947657;29;19918;-83
2022/08/14 12:22:10;;;;;;;;;;;28.30;60.60;;;;;;4928575;29;19918;-83
2022/08/14 12:24:36;;;;;;;;;;;28.30;61.00;;;;;;4945292;29;19911;-83
2022/08/14 12:27:02;;;;;;;;;;;28.30;60.30;;;;;;4944123;29;19915;-83
2022/08/14 12:29:27;;;;;;;;;;;28.50;60.30;;;;;;4928976;29;19919;-82
2022/08/14 12:31:57;;;;;;;;;;;28.70;60.40;;;;;;4927185;29;19918;-85
2022/08/14 12:34:28;;;;;;;;;;;28.70;59.00;;;;;;4917443;29;19911;-83
2022/08/14 12:37:05;;;;;;;;;;;28.70;58.50;;;;;;4931990;29;19910;-82
2022/08/14 12:39:31;;;;;;;;;;;28.80;59.00;;;;;;4935337;29;19925;-83
2022/08/14 12:42:05;;;;;;;;;;;28.80;58.30;;;;;;4949360;28;19950;-82
2022/08/14 12:44:31;;;;;;;;;;;28.90;60.30;;;;;;4917234;29;19915;-82
2022/08/14 12:47:04;;;;;;;;;;;29.10;58.70;;;;;;4940761;29;19918;-81
2022/08/14 12:49:30;;;;;;;;;;;29.30;58.10;;;;;;4936277;29;19962;-84
2022/08/14 12:52:00;;;;;;;;;;;29.40;57.30;;;;;;4937864;29;19907;-83
2022/08/14 12:54:26;;;;;;;;;;;29.50;57.60;;;;;;4937523;29;19958;-82
2022/08/14 12:57:01;;;;;;;;;;;29.60;57.90;;;;;;4935900;29;19918;-85
2022/08/14 12:59:32;;;;;;;;;;;29.80;57.70;;;;;;4919548;29;19970;-81
2022/08/14 13:01:58;;;;;;;;;;;30.00;56.40;;;;;;4945745;29;19915;-81
2022/08/14 13:04:24;;;;;;;;;;;30.10;56.60;;;;;;4940300;28;20292;-83
2022/08/14 13:06:51;;;;;;;;;;;30.20;55.80;;;;;;4930099;29;19914;-82
2022/08/14 13:09:17;;;;;;;;;;;30.20;56.40;;;;;;4935342;29;19978;-82
2022/08/14 13:11:45;;;;;;;;;;;30.00;55.70;;;;;;4928361;29;20748;-81
2022/08/14 13:14:12;;;;;;;;;;;29.70;56.10;;;;;;4934634;29;19914;-85
2022/08/14 13:16:39;;;;;;;;;;;29.50;56.60;;;;;;4934631;29;20315;-86
2022/08/14 13:19:10;;;;;;;;;;;29.20;56.40;;;;;;4915345;29;19923;-84
2022/08/14 13:21:36;;;;;;;;;;;29.00;57.20;;;;;;4910085;29;19911;-82
2022/08/14 13:24:02;;;;;;;;;;;28.90;57.60;;;;;;4949692;28;19915;-81
2022/08/14 13:26:28;;;;;;;;;;;28.70;57.80;;;;;;4915670;29;20350;-86
2022/08/14 13:28:54;;;;;;;;;;;28.60;58.80;;;;;;4915954;29;19926;-82
2022/08/14 13:31:26;;;;;;;;;;;28.50;58.10;;;;;;4923425;29;19918;-82
2022/08/14 13:33:52;;;;;;;;;;;28.30;57.90;;;;;;4930300;29;19947;-82
2022/08/14 13:36:17;;;;;;;;;;;28.20;58.40;;;;;;4922898;29;20001;-83
2022/08/14 13:38:43;;;;;;;;;;;28.10;58.90;;;;;;4930136;29;19919;-84
2022/08/14 13:41:10;;;;;;;;;;;28.00;59.00;;;;;;4937729;29;19918;-82
2022/08/14 13:43:38;;;;;;;;;;;28.00;59.00;;;;;;4914150;29;19907;-82
2022/08/14 13:46:04;;;;;;;;;;;28.00;58.60;;;;;;4936871;29;19911;-84
2022/08/14 13:48:30;;;;;;;;;;;27.90;58.70;;;;;;4934904;29;20969;-82
2022/08/14 13:50:57;;;;;;;;;;;27.90;59.30;;;;;;4931768;29;19919;-83
2022/08/14 13:53:23;;;;;;;;;;;27.90;58.80;;;;;;4933203;29;19918;-82
2022/08/14 13:55:49;;;;;;;;;;;27.90;59.60;;;;;;4933425;29;19936;-82
2022/08/14 13:58:15;;;;;;;;;;;27.90;59.50;;;;;;4933052;29;19974;-81
2022/08/14 14:00:42;;;;;;;;;;;27.80;59.60;;;;;;4948625;28;20093;-81
2022/08/14 14:03:09;;;;;;;;;;;27.80;59.40;;;;;;4943799;28;19923;-82
2022/08/14 14:05:37;;;;;;;;;;;27.80;59.70;;;;;;4916732;29;19915;-82
2022/08/14 14:08:04;;;;;;;;;;;27.80;60.70;;;;;;4917586;29;19961;-82
2022/08/14 14:10:31;;;;;;;;;;;27.80;59.60;;;;;;4948289;28;19977;-85
2022/08/14 14:12:57;;;;;;;;;;;27.70;59.80;;;;;;4916476;29;19911;-82
2022/08/14 14:15:23;;;;;;;;;;;27.80;59.70;;;;;;4931971;29;19915;-83
2022/08/14 14:17:49;;;;;;;;;;;27.80;59.60;;;;;;4949047;29;20719;-83
2022/08/14 14:20:17;;;;;;;;;;;27.90;59.80;;;;;;4914340;29;19946;-83
2022/08/14 14:22:43;;;;;;;;;;;27.80;59.40;;;;;;4947672;28;19962;-85
2022/08/14 14:25:10;;;;;;;;;;;27.80;58.50;;;;;;4931566;29;19906;-82
2022/08/14 14:27:36;;;;;;;;;;;27.80;59.70;;;;;;4924924;29;19911;-83
2022/08/14 14:30:03;;;;;;;;;;;27.80;58.60;;;;;;4929075;29;20070;-82
2022/08/14 14:32:30;;;;;;;;;;;27.80;58.60;;;;;;4946932;29;19914;-81